Time;durP1;ratioP1;P1;durP2;ratioP2;P2;SDS_P1;SDS_P2;PMS_P1;PMS_P2;Temp;Humidity;BMP_temperature;BMP_pressure;BME280_temperature;BME280_humidity;BME280_pressure;Samples;Min_cycle;Max_cycle;Signal;HPM_P1;HPM_P2
2023/03/30 00:01:00;;;;;;;;;;;14.40;99.90;;;;;;2059005;28;19906;-72
2023/03/30 00:02:02;;;;;;;;;;;14.40;99.90;;;;;;2059456;28;19913;-72
2023/03/30 00:03:02;;;;;;;;;;;14.40;99.90;;;;;;2068851;28;19917;-72
2023/03/30 00:04:03;;;;;;;;;;;14.40;99.90;;;;;;2068665;28;19905;-72
2023/03/30 00:05:05;;;;;;;;;;;14.40;99.90;;;;;;2059464;28;19972;-72
2023/03/30 00:06:06;;;;;;;;;;;14.40;99.90;;;;;;2059128;28;19910;-72
2023/03/30 00:07:07;;;;;;;;;;;14.40;99.90;;;;;;2061535;28;19910;-72
2023/03/30 00:08:07;;;;;;;;;;;14.40;99.90;;;;;;2060486;28;20008;-72
2023/03/30 00:09:08;;;;;;;;;;;14.40;99.90;;;;;;2060178;28;19910;-72
2023/03/30 00:10:10;;;;;;;;;;;14.40;99.90;;;;;;2058193;28;20023;-72
2023/03/30 00:11:16;;;;;;;;;;;14.40;99.90;;;;;;2059617;28;19914;-72
2023/03/30 00:12:19;;;;;;;;;;;14.30;99.90;;;;;;2059236;28;19906;-72
2023/03/30 00:13:19;;;;;;;;;;;14.40;99.90;;;;;;2065791;28;19909;-72
2023/03/30 00:14:22;;;;;;;;;;;14.40;99.90;;;;;;2067066;28;19969;-73
2023/03/30 00:15:23;;;;;;;;;;;14.40;99.90;;;;;;2060199;28;19928;-72
2023/03/30 00:16:23;;;;;;;;;;;14.40;99.90;;;;;;2058610;28;19914;-72
2023/03/30 00:17:24;;;;;;;;;;;14.40;99.90;;;;;;2067390;28;20460;-72
2023/03/30 00:18:25;;;;;;;;;;;14.40;99.90;;;;;;2065965;28;19910;-72
2023/03/30 00:19:25;;;;;;;;;;;14.40;99.90;;;;;;2059911;28;20358;-72
2023/03/30 00:20:26;;;;;;;;;;;14.30;99.90;;;;;;2059098;28;19913;-72
2023/03/30 00:21:27;;;;;;;;;;;14.40;99.90;;;;;;2059509;28;19921;-72
2023/03/30 00:22:27;;;;;;;;;;;14.40;99.90;;;;;;2059064;28;20017;-72
2023/03/30 00:23:28;;;;;;;;;;;14.40;99.90;;;;;;2067775;28;19916;-72
2023/03/30 00:24:28;;;;;;;;;;;14.30;99.90;;;;;;2066440;28;20318;-72
2023/03/30 00:25:29;;;;;;;;;;;14.40;99.90;;;;;;2059600;28;19916;-72
2023/03/30 00:26:29;;;;;;;;;;;14.40;99.90;;;;;;2059716;28;19917;-72
2023/03/30 00:27:30;;;;;;;;;;;14.30;99.90;;;;;;2060388;28;19926;-72
2023/03/30 00:28:31;;;;;;;;;;;14.30;99.90;;;;;;2057768;28;19961;-72
2023/03/30 00:29:31;;;;;;;;;;;14.40;99.90;;;;;;2058958;28;20378;-72
2023/03/30 00:30:32;;;;;;;;;;;14.40;99.90;;;;;;2060431;28;19910;-72
2023/03/30 00:31:32;;;;;;;;;;;14.40;99.90;;;;;;2058988;28;19917;-72
2023/03/30 00:32:35;;;;;;;;;;;14.30;99.90;;;;;;2059235;28;19968;-72
2023/03/30 00:33:36;;;;;;;;;;;14.40;99.90;;;;;;2060777;28;20376;-72
2023/03/30 00:34:36;;;;;;;;;;;14.30;99.90;;;;;;2058591;28;19914;-72
2023/03/30 00:35:37;;;;;;;;;;;14.40;99.90;;;;;;2059009;28;20258;-73
2023/03/30 00:36:37;;;;;;;;;;;14.40;99.90;;;;;;2060506;28;19910;-72
2023/03/30 00:37:38;;;;;;;;;;;14.40;99.90;;;;;;2058399;28;20497;-72
2023/03/30 00:38:39;;;;;;;;;;;14.40;99.90;;;;;;2059283;28;20015;-72
2023/03/30 00:39:40;;;;;;;;;;;14.40;99.90;;;;;;2059860;28;19945;-72
2023/03/30 00:40:41;;;;;;;;;;;14.40;99.90;;;;;;2059024;28;19920;-72
2023/03/30 00:41:41;;;;;;;;;;;14.40;99.90;;;;;;2058441;28;19910;-73
2023/03/30 00:42:41;;;;;;;;;;;14.40;99.90;;;;;;2056435;28;19906;-72
2023/03/30 00:43:58;;;;;;;;;;;14.40;99.90;;;;;;2059876;28;19914;-72
2023/03/30 00:45:08;;;;;;;;;;;14.40;99.90;;;;;;2058893;28;19996;-72
2023/03/30 00:46:08;;;;;;;;;;;14.40;99.90;;;;;;2060194;28;19910;-72
2023/03/30 00:47:09;;;;;;;;;;;14.40;99.90;;;;;;2060261;28;19910;-72
2023/03/30 00:48:14;;;;;;;;;;;14.40;99.90;;;;;;2058191;28;20559;-72
2023/03/30 00:49:14;;;;;;;;;;;14.40;99.90;;;;;;2066230;28;19965;-73
2023/03/30 00:50:16;;;;;;;;;;;14.50;99.90;;;;;;2064397;28;19909;-72
2023/03/30 00:51:17;;;;;;;;;;;14.40;99.90;;;;;;2059647;28;19924;-72
2023/03/30 00:52:23;;;;;;;;;;;14.50;99.90;;;;;;2059315;28;19917;-72
2023/03/30 00:53:34;;;;;;;;;;;14.50;99.90;;;;;;2059369;28;19906;-72
2023/03/30 00:54:35;;;;;;;;;;;14.50;99.90;;;;;;2058852;28;19988;-72
2023/03/30 00:55:37;;;;;;;;;;;14.50;99.90;;;;;;2059588;28;19910;-72
2023/03/30 00:56:38;;;;;;;;;;;14.50;99.90;;;;;;2058624;28;19928;-72
2023/03/30 00:57:40;;;;;;;;;;;14.50;99.90;;;;;;2057855;28;19980;-72
2023/03/30 00:58:42;;;;;;;;;;;14.50;99.90;;;;;;2065862;28;19909;-72
2023/03/30 00:59:42;;;;;;;;;;;14.50;99.90;;;;;;2062924;28;19913;-72
2023/03/30 01:00:45;;;;;;;;;;;14.50;99.90;;;;;;2060611;28;19949;-73
2023/03/30 01:01:48;;;;;;;;;;;14.50;99.90;;;;;;2058747;28;19910;-73
2023/03/30 01:02:55;;;;;;;;;;;14.50;99.90;;;;;;2059159;28;20674;-73
2023/03/30 01:03:58;;;;;;;;;;;14.50;99.90;;;;;;2066794;28;19968;-73
2023/03/30 01:04:58;;;;;;;;;;;14.50;99.90;;;;;;2066124;28;20452;-73
2023/03/30 01:06:02;;;;;;;;;;;14.50;99.90;;;;;;2059111;28;19914;-72
2023/03/30 01:07:03;;;;;;;;;;;14.50;99.90;;;;;;2060262;28;19914;-73
2023/03/30 01:08:06;;;;;;;;;;;14.50;99.90;;;;;;2058888;28;19921;-73
2023/03/30 01:09:07;;;;;;;;;;;14.50;99.90;;;;;;2059569;28;20013;-72
2023/03/30 01:10:08;;;;;;;;;;;14.50;99.90;;;;;;2059045;28;19912;-73
2023/03/30 01:11:08;;;;;;;;;;;14.50;99.90;;;;;;2058764;28;20301;-73
2023/03/30 01:12:09;;;;;;;;;;;14.50;99.90;;;;;;2058676;28;19910;-73
2023/03/30 01:13:11;;;;;;;;;;;14.50;99.90;;;;;;2065353;28;20469;-72
2023/03/30 01:14:12;;;;;;;;;;;14.50;99.90;;;;;;2067381;28;19910;-73
2023/03/30 01:15:14;;;;;;;;;;;14.50;99.90;;;;;;2060859;28;19910;-73
2023/03/30 01:16:17;;;;;;;;;;;14.60;99.90;;;;;;2057955;28;19913;-73
2023/03/30 01:17:33;;;;;;;;;;;14.60;99.90;;;;;;2060203;28;19914;-73
2023/03/30 01:18:39;;;;;;;;;;;14.60;99.90;;;;;;2058411;28;20021;-73
2023/03/30 01:19:42;;;;;;;;;;;14.60;99.90;;;;;;2058199;28;19906;-73
2023/03/30 01:21:02;;;;;;;;;;;14.60;99.90;;;;;;2059686;28;20437;-73
2023/03/30 01:22:13;;;;;;;;;;;14.60;99.90;;;;;;2058841;28;19983;-73
2023/03/30 01:23:26;;;;;;;;;;;14.60;99.90;;;;;;2058785;28;19910;-73
2023/03/30 01:24:36;;;;;;;;;;;14.60;99.90;;;;;;2058596;28;19977;-73
2023/03/30 01:25:44;;;;;;;;;;;14.70;99.90;;;;;;2062851;28;19996;-72
2023/03/30 01:26:53;;;;;;;;;;;14.70;99.90;;;;;;2062370;28;19949;-73
2023/03/30 01:28:06;;;;;;;;;;;14.70;99.90;;;;;;2058741;28;19982;-73
2023/03/30 01:29:12;;;;;;;;;;;14.70;99.90;;;;;;2058579;28;19993;-73
2023/03/30 01:30:32;;;;;;;;;;;14.70;99.90;;;;;;2057272;28;19917;-72
2023/03/30 01:31:35;;;;;;;;;;;14.70;99.90;;;;;;2057973;28;19910;-73
2023/03/30 01:32:41;;;;;;;;;;;14.80;99.90;;;;;;2058166;28;19910;-73
2023/03/30 01:34:01;;;;;;;;;;;14.70;99.90;;;;;;2059750;28;19921;-72
2023/03/30 01:35:10;;;;;;;;;;;14.70;99.90;;;;;;2060183;28;19914;-73
2023/03/30 01:36:30;;;;;;;;;;;14.80;99.90;;;;;;2059013;28;19953;-73
2023/03/30 01:37:30;;;;;;;;;;;14.80;99.90;;;;;;2057844;28;19906;-73
2023/03/30 01:38:43;;;;;;;;;;;14.80;99.90;;;;;;2058344;28;20422;-73
2023/03/30 01:39:52;;;;;;;;;;;14.90;99.90;;;;;;2058376;28;19910;-73
2023/03/30 01:41:05;;;;;;;;;;;14.90;99.90;;;;;;2061060;28;19949;-73
2023/03/30 01:42:30;;;;;;;;;;;14.90;99.90;;;;;;2060331;28;19916;-73
2023/03/30 01:43:51;;;;;;;;;;;14.90;99.90;;;;;;2056998;28;19910;-73
2023/03/30 01:45:00;;;;;;;;;;;14.90;99.90;;;;;;2058154;28;19914;-73
2023/03/30 01:46:04;;;;;;;;;;;14.90;99.90;;;;;;2058045;28;20436;-72
2023/03/30 01:47:05;;;;;;;;;;;15.00;99.90;;;;;;2059089;28;19914;-73
2023/03/30 01:48:12;;;;;;;;;;;14.90;99.90;;;;;;2059384;28;19914;-73
2023/03/30 01:49:16;;;;;;;;;;;15.00;99.90;;;;;;2059555;28;19917;-73
2023/03/30 01:50:25;;;;;;;;;;;15.00;99.90;;;;;;2059092;28;19917;-73
2023/03/30 01:51:27;;;;;;;;;;;15.00;99.90;;;;;;2057330;28;19920;-73
2023/03/30 01:52:37;;;;;;;;;;;15.00;99.90;;;;;;2058551;28;19913;-72
2023/03/30 01:53:47;;;;;;;;;;;15.00;99.90;;;;;;2058823;28;19921;-73
2023/03/30 01:54:50;;;;;;;;;;;15.00;99.90;;;;;;2058835;28;19941;-73
2023/03/30 01:55:54;;;;;;;;;;;15.00;99.90;;;;;;2059790;28;19910;-73
2023/03/30 01:57:08;;;;;;;;;;;15.00;99.90;;;;;;2060182;28;19968;-73
2023/03/30 01:58:17;;;;;;;;;;;15.00;99.90;;;;;;2058830;28;19910;-73
2023/03/30 01:59:26;;;;;;;;;;;15.00;99.90;;;;;;2056672;28;19921;-73
2023/03/30 02:00:27;;;;;;;;;;;15.10;99.90;;;;;;2057329;28;20012;-73
2023/03/30 02:01:29;;;;;;;;;;;15.10;99.90;;;;;;2058677;28;19906;-73
2023/03/30 02:02:31;;;;;;;;;;;15.10;99.90;;;;;;2074101;28;19920;-73
2023/03/30 02:03:33;;;;;;;;;;;15.10;99.90;;;;;;2074126;28;19928;-73
2023/03/30 02:04:35;;;;;;;;;;;15.10;99.90;;;;;;2058411;28;20029;-72
2023/03/30 02:05:36;;;;;;;;;;;15.20;99.90;;;;;;2065439;28;19906;-73
2023/03/30 02:06:49;;;;;;;;;;;15.20;99.90;;;;;;2065541;28;19909;-72
2023/03/30 02:07:56;;;;;;;;;;;15.20;99.90;;;;;;2056938;28;19910;-73
2023/03/30 02:08:59;;;;;;;;;;;15.20;99.90;;;;;;2059624;28;20345;-73
2023/03/30 02:10:01;;;;;;;;;;;15.20;99.90;;;;;;2065295;28;19910;-73
2023/03/30 02:11:02;;;;;;;;;;;15.20;99.90;;;;;;2066582;28;20485;-73
2023/03/30 02:12:03;;;;;;;;;;;15.20;99.90;;;;;;2058775;28;20285;-73
2023/03/30 02:13:05;;;;;;;;;;;15.20;99.90;;;;;;2058533;28;20293;-73
2023/03/30 02:14:08;;;;;;;;;;;15.30;99.90;;;;;;2059774;28;19943;-73
2023/03/30 02:15:09;;;;;;;;;;;15.20;99.90;;;;;;2058603;28;19905;-73
2023/03/30 02:16:15;;;;;;;;;;;15.30;99.90;;;;;;2057627;28;20336;-72
2023/03/30 02:17:17;;;;;;;;;;;15.30;99.90;;;;;;2060475;28;20004;-72
2023/03/30 02:18:19;;;;;;;;;;;15.30;99.90;;;;;;2058473;28;19909;-72
2023/03/30 02:19:19;;;;;;;;;;;15.30;99.90;;;;;;2057433;28;19914;-72
2023/03/30 02:20:19;;;;;;;;;;;15.30;99.90;;;;;;2057791;28;20248;-72
2023/03/30 02:21:21;;;;;;;;;;;15.30;99.90;;;;;;2058900;28;20048;-72
2023/03/30 02:22:22;;;;;;;;;;;15.30;99.90;;;;;;2058910;28;19980;-72
2023/03/30 02:23:26;;;;;;;;;;;15.30;99.90;;;;;;2057035;28;20044;-72
2023/03/30 02:24:29;;;;;;;;;;;15.40;99.70;;;;;;2059450;28;19916;-71
2023/03/30 02:25:29;;;;;;;;;;;15.30;99.90;;;;;;2057467;28;20354;-71
2023/03/30 02:26:31;;;;;;;;;;;15.30;99.90;;;;;;2057159;28;20257;-72
2023/03/30 02:27:32;;;;;;;;;;;15.30;99.80;;;;;;2059469;28;19996;-72
2023/03/30 02:28:33;;;;;;;;;;;15.40;99.90;;;;;;2058707;28;19925;-72
2023/03/30 02:29:36;;;;;;;;;;;15.30;99.90;;;;;;2059623;28;19949;-72
2023/03/30 02:30:41;;;;;;;;;;;15.40;99.90;;;;;;2058009;28;20436;-72
2023/03/30 02:31:44;;;;;;;;;;;15.40;99.90;;;;;;2057526;28;20430;-71
2023/03/30 02:32:50;;;;;;;;;;;15.40;99.80;;;;;;2056823;28;20266;-72
2023/03/30 02:33:51;;;;;;;;;;;15.40;99.90;;;;;;2059713;28;20527;-72
2023/03/30 02:35:17;;;;;;;;;;;15.40;99.50;;;;;;2072082;28;19971;-72
2023/03/30 02:36:28;;;;;;;;;;;15.40;99.20;;;;;;2066157;28;19909;-72
2023/03/30 02:37:47;;;;;;;;;;;15.40;99.30;;;;;;2061027;28;20709;-71
2023/03/30 02:39:00;;;;;;;;;;;15.40;99.10;;;;;;2059808;28;19913;-72
2023/03/30 02:40:12;;;;;;;;;;;15.50;99.10;;;;;;2057995;28;20010;-71
2023/03/30 02:41:19;;;;;;;;;;;15.50;99.20;;;;;;2058537;28;19910;-72
2023/03/30 02:42:39;;;;;;;;;;;15.50;99.10;;;;;;2057371;28;19910;-72
2023/03/30 02:44:00;;;;;;;;;;;15.50;99.70;;;;;;2057271;28;20004;-72
2023/03/30 02:45:03;;;;;;;;;;;15.50;99.40;;;;;;2072443;28;20456;-72
2023/03/30 02:46:10;;;;;;;;;;;15.50;98.40;;;;;;2073943;28;19913;-72
2023/03/30 02:47:21;;;;;;;;;;;15.50;99.00;;;;;;2057706;28;19909;-72
2023/03/30 02:48:28;;;;;;;;;;;15.50;98.90;;;;;;2056444;28;19910;-72
2023/03/30 02:49:37;;;;;;;;;;;15.50;98.50;;;;;;2058945;28;19914;-72
2023/03/30 02:50:43;;;;;;;;;;;15.60;98.70;;;;;;2057334;28;20350;-72
2023/03/30 02:51:44;;;;;;;;;;;15.60;98.80;;;;;;2059614;28;20425;-72
2023/03/30 02:52:51;;;;;;;;;;;15.60;98.90;;;;;;2057747;28;20303;-72
2023/03/30 02:53:52;;;;;;;;;;;15.60;98.80;;;;;;2058508;28;19932;-72
2023/03/30 02:55:04;;;;;;;;;;;15.60;99.20;;;;;;2058122;28;19956;-72
2023/03/30 02:56:10;;;;;;;;;;;15.60;99.00;;;;;;2056540;28;19906;-72
2023/03/30 02:57:20;;;;;;;;;;;15.60;98.70;;;;;;2073374;28;20432;-72
2023/03/30 02:58:24;;;;;;;;;;;15.60;98.70;;;;;;2071033;28;19913;-72
2023/03/30 02:59:33;;;;;;;;;;;15.50;98.60;;;;;;2057662;28;20001;-72
2023/03/30 03:00:37;;;;;;;;;;;15.60;98.50;;;;;;2057741;28;19910;-72
2023/03/30 03:01:41;;;;;;;;;;;15.60;98.30;;;;;;2059482;28;19909;-72
2023/03/30 03:02:52;;;;;;;;;;;15.60;98.70;;;;;;2059680;28;19914;-72
2023/03/30 03:03:57;;;;;;;;;;;15.60;98.50;;;;;;2056917;28;19920;-72
2023/03/30 03:04:57;;;;;;;;;;;15.60;98.70;;;;;;2058436;28;19910;-72
2023/03/30 03:06:01;;;;;;;;;;;15.60;98.50;;;;;;2058017;28;19917;-72
2023/03/30 03:07:02;;;;;;;;;;;15.60;98.40;;;;;;2057648;28;20040;-72
2023/03/30 03:08:02;;;;;;;;;;;15.50;98.30;;;;;;2058648;28;19914;-72
2023/03/30 03:09:03;;;;;;;;;;;15.60;98.30;;;;;;2058102;28;19924;-72
2023/03/30 03:10:05;;;;;;;;;;;15.60;97.80;;;;;;2058157;28;20296;-72
2023/03/30 03:11:08;;;;;;;;;;;15.60;97.50;;;;;;2057579;28;19929;-72
2023/03/30 03:12:09;;;;;;;;;;;15.60;97.60;;;;;;2065573;28;20348;-72
2023/03/30 03:13:09;;;;;;;;;;;15.60;98.10;;;;;;2065315;28;19964;-71
2023/03/30 03:14:10;;;;;;;;;;;15.60;98.10;;;;;;2057392;28;20282;-72
2023/03/30 03:15:11;;;;;;;;;;;15.60;98.00;;;;;;2059345;28;20377;-72
2023/03/30 03:16:12;;;;;;;;;;;15.60;97.90;;;;;;2058465;28;19910;-72
2023/03/30 03:17:14;;;;;;;;;;;15.60;97.90;;;;;;2058680;28;19936;-72
2023/03/30 03:18:14;;;;;;;;;;;15.60;97.70;;;;;;2058781;28;19965;-71
2023/03/30 03:19:15;;;;;;;;;;;15.60;97.80;;;;;;2058055;28;20358;-72
2023/03/30 03:20:16;;;;;;;;;;;15.50;98.00;;;;;;2057210;28;19913;-71
2023/03/30 03:21:16;;;;;;;;;;;15.50;98.00;;;;;;2059570;28;20106;-71
2023/03/30 03:22:17;;;;;;;;;;;15.50;98.30;;;;;;2058963;28;19914;-72
2023/03/30 03:23:17;;;;;;;;;;;15.50;98.10;;;;;;2059289;28;19936;-72
2023/03/30 03:24:17;;;;;;;;;;;15.50;98.00;;;;;;2056712;28;19968;-72
2023/03/30 03:25:18;;;;;;;;;;;15.50;98.10;;;;;;2058958;28;20530;-72
2023/03/30 03:26:18;;;;;;;;;;;15.50;97.90;;;;;;2058599;28;19961;-72
2023/03/30 03:27:19;;;;;;;;;;;15.50;98.10;;;;;;2057034;28;20350;-72
2023/03/30 03:28:20;;;;;;;;;;;15.50;98.10;;;;;;2058460;28;19914;-72
2023/03/30 03:29:21;;;;;;;;;;;15.50;98.40;;;;;;2058326;28;19909;-72
2023/03/30 03:30:22;;;;;;;;;;;15.50;98.30;;;;;;2058278;28;19910;-72
2023/03/30 03:31:23;;;;;;;;;;;15.50;98.30;;;;;;2057964;28;19921;-72
2023/03/30 03:32:23;;;;;;;;;;;15.50;98.50;;;;;;2058378;28;19968;-72
2023/03/30 03:33:25;;;;;;;;;;;15.50;98.70;;;;;;2060058;28;19918;-72
2023/03/30 03:34:30;;;;;;;;;;;15.50;98.50;;;;;;2059133;28;19914;-72
2023/03/30 03:35:30;;;;;;;;;;;15.50;98.30;;;;;;2059584;28;19965;-72
2023/03/30 03:36:31;;;;;;;;;;;15.50;98.30;;;;;;2059836;28;19922;-72
2023/03/30 03:37:32;;;;;;;;;;;15.50;98.80;;;;;;2062260;28;19972;-72
2023/03/30 03:38:32;;;;;;;;;;;15.50;98.70;;;;;;2059083;28;19949;-72
2023/03/30 03:39:34;;;;;;;;;;;15.50;99.00;;;;;;2076673;28;19960;-72
2023/03/30 03:40:35;;;;;;;;;;;15.50;98.70;;;;;;2073773;28;19984;-72
2023/03/30 03:41:35;;;;;;;;;;;15.50;99.10;;;;;;2059620;28;19917;-72
2023/03/30 03:42:36;;;;;;;;;;;15.50;98.90;;;;;;2058446;28;20381;-72
2023/03/30 03:43:36;;;;;;;;;;;15.50;99.00;;;;;;2059811;28;19910;-72
2023/03/30 03:44:39;;;;;;;;;;;15.50;98.80;;;;;;2061661;28;19913;-72
2023/03/30 03:45:40;;;;;;;;;;;15.50;98.90;;;;;;2060648;28;19917;-72
2023/03/30 03:46:40;;;;;;;;;;;15.50;98.90;;;;;;2059367;28;19914;-72
2023/03/30 03:47:41;;;;;;;;;;;15.60;98.90;;;;;;2061751;28;19936;-72
2023/03/30 03:48:41;;;;;;;;;;;15.60;98.80;;;;;;2060998;28;19914;-72
2023/03/30 03:49:42;;;;;;;;;;;15.60;98.80;;;;;;2059479;28;19913;-72
2023/03/30 03:50:42;;;;;;;;;;;15.60;99.00;;;;;;2057497;28;19961;-72
2023/03/30 03:51:43;;;;;;;;;;;15.60;98.70;;;;;;2059225;28;20341;-72
2023/03/30 03:52:44;;;;;;;;;;;15.60;99.00;;;;;;2060785;28;19957;-72
2023/03/30 03:53:47;;;;;;;;;;;15.60;99.20;;;;;;2059602;28;19929;-72
2023/03/30 03:54:47;;;;;;;;;;;15.60;98.90;;;;;;2057606;28;19925;-72
2023/03/30 03:55:48;;;;;;;;;;;15.60;99.00;;;;;;2060515;28;19906;-72
2023/03/30 03:56:48;;;;;;;;;;;15.60;99.40;;;;;;2059529;28;19909;-72
2023/03/30 03:57:49;;;;;;;;;;;15.60;99.30;;;;;;2060781;28;20385;-71
2023/03/30 03:58:49;;;;;;;;;;;15.60;99.40;;;;;;2061209;28;19914;-72
2023/03/30 03:59:55;;;;;;;;;;;15.60;99.10;;;;;;2059480;28;19925;-72
2023/03/30 04:00:57;;;;;;;;;;;15.60;99.10;;;;;;2059556;28;19961;-72
2023/03/30 04:01:57;;;;;;;;;;;15.60;99.20;;;;;;2059366;28;19909;-72
2023/03/30 04:02:58;;;;;;;;;;;15.60;99.30;;;;;;2059666;28;19910;-72
2023/03/30 04:03:58;;;;;;;;;;;15.60;99.20;;;;;;2060438;28;19992;-72
2023/03/30 04:04:59;;;;;;;;;;;15.60;99.00;;;;;;2058909;28;19913;-72
2023/03/30 04:06:01;;;;;;;;;;;15.70;99.30;;;;;;2059526;28;19910;-72
2023/03/30 04:07:01;;;;;;;;;;;15.60;99.10;;;;;;2059361;28;19917;-72
2023/03/30 04:08:02;;;;;;;;;;;15.60;99.30;;;;;;2060540;28;19925;-72
2023/03/30 04:09:02;;;;;;;;;;;15.60;99.40;;;;;;2062251;28;19968;-72
2023/03/30 04:10:03;;;;;;;;;;;15.60;99.10;;;;;;2059651;28;19910;-72
2023/03/30 04:11:06;;;;;;;;;;;15.60;99.10;;;;;;2058981;28;20665;-72
2023/03/30 04:12:07;;;;;;;;;;;15.60;99.00;;;;;;2077056;28;20079;-71
2023/03/30 04:13:07;;;;;;;;;;;15.70;99.20;;;;;;2074359;28;19960;-72
2023/03/30 04:14:08;;;;;;;;;;;15.70;99.20;;;;;;2058854;28;19921;-72
2023/03/30 04:15:08;;;;;;;;;;;15.70;99.50;;;;;;2059579;28;19936;-72
2023/03/30 04:16:09;;;;;;;;;;;15.70;99.20;;;;;;2058494;28;19914;-72
2023/03/30 04:17:10;;;;;;;;;;;15.70;99.40;;;;;;2060524;28;20224;-72
2023/03/30 04:18:11;;;;;;;;;;;15.70;99.50;;;;;;2059059;28;19917;-72
2023/03/30 04:19:12;;;;;;;;;;;15.70;99.60;;;;;;2059653;28;19910;-72
2023/03/30 04:20:12;;;;;;;;;;;15.70;99.60;;;;;;2057426;28;19910;-71
2023/03/30 04:21:12;;;;;;;;;;;15.70;99.60;;;;;;2059462;28;19909;-71
2023/03/30 04:22:13;;;;;;;;;;;15.60;99.60;;;;;;2063336;28;20495;-72
2023/03/30 04:23:15;;;;;;;;;;;15.70;99.90;;;;;;2062438;28;19910;-72
2023/03/30 04:24:16;;;;;;;;;;;15.70;99.90;;;;;;2059702;28;19965;-72
2023/03/30 04:25:20;;;;;;;;;;;15.60;99.90;;;;;;2058969;28;19913;-72
2023/03/30 04:26:21;;;;;;;;;;;15.70;99.90;;;;;;2060264;28;19914;-72
2023/03/30 04:27:24;;;;;;;;;;;15.70;99.90;;;;;;2058170;28;19913;-72
2023/03/30 04:28:28;;;;;;;;;;;15.60;99.90;;;;;;2062534;28;20369;-72
2023/03/30 04:29:29;;;;;;;;;;;15.60;99.90;;;;;;2062125;28;19917;-71
2023/03/30 04:30:30;;;;;;;;;;;15.60;99.90;;;;;;2058633;28;19909;-72
2023/03/30 04:31:33;;;;;;;;;;;15.60;99.90;;;;;;2058912;28;19910;-72
2023/03/30 04:32:37;;;;;;;;;;;15.60;99.90;;;;;;2059241;28;19933;-72
2023/03/30 04:34:01;;;;;;;;;;;15.60;99.90;;;;;;2074024;28;20365;-72
2023/03/30 04:35:02;;;;;;;;;;;15.60;99.90;;;;;;2070729;28;20251;-71
2023/03/30 04:36:03;;;;;;;;;;;15.60;99.90;;;;;;2058460;28;20085;-72
2023/03/30 04:37:03;;;;;;;;;;;15.60;99.90;;;;;;2060023;28;20024;-72
2023/03/30 04:38:05;;;;;;;;;;;15.60;99.90;;;;;;2060396;28;19910;-72
2023/03/30 04:39:06;;;;;;;;;;;15.60;99.90;;;;;;2058937;28;19920;-72
2023/03/30 04:40:08;;;;;;;;;;;15.60;99.90;;;;;;2058836;28;19913;-71
2023/03/30 04:41:09;;;;;;;;;;;15.60;99.90;;;;;;2067562;28;19905;-72
2023/03/30 04:42:13;;;;;;;;;;;15.60;99.90;;;;;;2067430;28;19909;-71
2023/03/30 04:43:13;;;;;;;;;;;15.60;99.90;;;;;;2059298;28;20551;-71
2023/03/30 04:44:14;;;;;;;;;;;15.60;99.90;;;;;;2060321;28;19906;-72
2023/03/30 04:45:17;;;;;;;;;;;15.60;99.90;;;;;;2059296;28;19921;-71
2023/03/30 04:46:17;;;;;;;;;;;15.60;99.90;;;;;;2058644;28;19950;-72
2023/03/30 04:47:17;;;;;;;;;;;15.60;99.90;;;;;;2066533;28;19909;-72
2023/03/30 04:48:19;;;;;;;;;;;15.60;99.90;;;;;;2065964;28;20385;-71
2023/03/30 04:49:19;;;;;;;;;;;15.60;99.90;;;;;;2059636;28;19910;-71
2023/03/30 04:50:20;;;;;;;;;;;15.60;99.90;;;;;;2059145;28;19936;-72
2023/03/30 04:51:20;;;;;;;;;;;15.60;99.90;;;;;;2059150;28;20453;-71
2023/03/30 04:52:21;;;;;;;;;;;15.60;99.90;;;;;;2058959;28;19917;-72
2023/03/30 04:53:22;;;;;;;;;;;15.60;99.90;;;;;;2057788;28;20421;-72
2023/03/30 04:54:22;;;;;;;;;;;15.60;99.90;;;;;;2056911;28;20389;-72
2023/03/30 04:55:22;;;;;;;;;;;15.60;99.90;;;;;;2059311;28;20290;-72
2023/03/30 04:56:23;;;;;;;;;;;15.60;99.90;;;;;;2057973;28;19984;-72
2023/03/30 04:57:23;;;;;;;;;;;15.60;99.90;;;;;;2058897;28;20325;-72
2023/03/30 04:58:24;;;;;;;;;;;15.60;99.90;;;;;;2059039;28;20235;-72
2023/03/30 04:59:24;;;;;;;;;;;15.70;99.90;;;;;;2059879;28;19949;-71
2023/03/30 05:00:26;;;;;;;;;;;15.60;99.90;;;;;;2062093;28;20348;-71
2023/03/30 05:01:26;;;;;;;;;;;15.60;99.90;;;;;;2061000;28;19913;-72
2023/03/30 05:02:27;;;;;;;;;;;15.60;99.90;;;;;;2059394;28;20433;-72
2023/03/30 05:03:27;;;;;;;;;;;15.70;99.90;;;;;;2058948;28;19906;-72
2023/03/30 05:04:28;;;;;;;;;;;15.70;99.90;;;;;;2058843;28;19968;-71
2023/03/30 05:05:29;;;;;;;;;;;15.60;99.90;;;;;;2057439;28;20402;-72
2023/03/30 05:06:29;;;;;;;;;;;15.70;99.90;;;;;;2058323;28;20397;-72
2023/03/30 05:07:30;;;;;;;;;;;15.60;99.90;;;;;;2059822;28;19910;-72
2023/03/30 05:08:32;;;;;;;;;;;15.60;99.90;;;;;;2059441;28;20332;-71
2023/03/30 05:09:32;;;;;;;;;;;15.60;99.90;;;;;;2059803;28;19927;-72
2023/03/30 05:10:33;;;;;;;;;;;15.60;99.90;;;;;;2060136;28;19906;-72
2023/03/30 05:11:33;;;;;;;;;;;15.70;99.90;;;;;;2060159;28;19906;-71
2023/03/30 05:12:34;;;;;;;;;;;15.70;99.90;;;;;;2057802;28;19910;-72
2023/03/30 05:13:34;;;;;;;;;;;15.70;99.90;;;;;;2059946;28;19914;-71
2023/03/30 05:14:35;;;;;;;;;;;15.60;99.90;;;;;;2058568;28;20255;-72
2023/03/30 05:15:35;;;;;;;;;;;15.60;99.90;;;;;;2058720;28;21070;-72
2023/03/30 05:16:36;;;;;;;;;;;15.70;99.90;;;;;;2059545;28;19957;-71
2023/03/30 05:17:37;;;;;;;;;;;15.70;99.90;;;;;;2060079;28;20015;-72
2023/03/30 05:18:38;;;;;;;;;;;15.60;99.90;;;;;;2057883;28;19910;-72
2023/03/30 05:19:38;;;;;;;;;;;15.60;99.90;;;;;;2059957;28;20000;-71
2023/03/30 05:20:39;;;;;;;;;;;15.60;99.90;;;;;;2059245;28;19906;-71
2023/03/30 05:21:39;;;;;;;;;;;15.60;99.90;;;;;;2066754;28;20839;-72
2023/03/30 05:22:40;;;;;;;;;;;15.60;99.90;;;;;;2065503;28;19937;-72
2023/03/30 05:23:41;;;;;;;;;;;15.60;99.90;;;;;;2059658;28;19918;-72
2023/03/30 05:24:42;;;;;;;;;;;15.60;99.90;;;;;;2059544;28;19913;-71
2023/03/30 05:25:47;;;;;;;;;;;15.60;99.90;;;;;;2059414;28;19959;-71
2023/03/30 05:26:48;;;;;;;;;;;15.60;99.90;;;;;;2058756;28;19960;-72
2023/03/30 05:27:48;;;;;;;;;;;15.60;99.90;;;;;;2059363;28;19949;-72
2023/03/30 05:28:49;;;;;;;;;;;15.60;99.90;;;;;;2059437;28;19906;-71
2023/03/30 05:29:49;;;;;;;;;;;15.60;99.90;;;;;;2058884;28;19914;-71
2023/03/30 05:30:53;;;;;;;;;;;15.60;99.90;;;;;;2059120;28;20538;-72
2023/03/30 05:31:54;;;;;;;;;;;15.60;99.90;;;;;;2060176;28;19968;-71
2023/03/30 05:32:54;;;;;;;;;;;15.70;99.90;;;;;;2077389;28;20366;-72
2023/03/30 05:33:55;;;;;;;;;;;15.60;99.90;;;;;;2075440;28;20328;-72
2023/03/30 05:34:55;;;;;;;;;;;15.60;99.90;;;;;;2059790;28;19936;-72
2023/03/30 05:35:56;;;;;;;;;;;15.60;99.90;;;;;;2060480;28;20008;-72
2023/03/30 05:36:56;;;;;;;;;;;15.60;99.90;;;;;;2060340;28;19914;-71
2023/03/30 05:37:57;;;;;;;;;;;15.60;99.90;;;;;;2059213;28;20016;-72
2023/03/30 05:38:57;;;;;;;;;;;15.60;99.90;;;;;;2058932;28;20317;-72
2023/03/30 05:39:58;;;;;;;;;;;15.60;99.90;;;;;;2058408;28;19961;-71
2023/03/30 05:40:58;;;;;;;;;;;15.60;99.90;;;;;;2060181;28;19913;-72
2023/03/30 05:42:00;;;;;;;;;;;15.60;99.90;;;;;;2065220;28;19924;-72
2023/03/30 05:43:00;;;;;;;;;;;15.60;99.90;;;;;;2064687;28;19913;-72
2023/03/30 05:44:01;;;;;;;;;;;15.60;99.90;;;;;;2058581;28;19913;-71
2023/03/30 05:45:01;;;;;;;;;;;15.60;99.90;;;;;;2058964;28;19925;-72
2023/03/30 05:46:02;;;;;;;;;;;15.60;99.90;;;;;;2058465;28;21277;-72
2023/03/30 05:47:02;;;;;;;;;;;15.50;99.90;;;;;;2058990;28;19958;-72
2023/03/30 05:48:05;;;;;;;;;;;15.50;99.90;;;;;;2058841;28;19918;-72
2023/03/30 05:49:06;;;;;;;;;;;15.50;99.90;;;;;;2058654;28;19910;-72
2023/03/30 05:50:08;;;;;;;;;;;15.50;99.90;;;;;;2059547;28;19934;-72
2023/03/30 05:51:08;;;;;;;;;;;15.50;99.90;;;;;;2068520;28;19972;-72
2023/03/30 05:52:10;;;;;;;;;;;15.50;99.90;;;;;;2059938;28;19910;-72
2023/03/30 05:53:10;;;;;;;;;;;15.50;99.90;;;;;;2059299;28;19906;-72
2023/03/30 05:54:11;;;;;;;;;;;15.50;99.90;;;;;;2060173;28;19964;-72
2023/03/30 05:55:12;;;;;;;;;;;15.50;99.90;;;;;;2059062;28;20643;-72
2023/03/30 05:56:12;;;;;;;;;;;15.50;99.90;;;;;;2058342;28;20294;-72
2023/03/30 05:57:13;;;;;;;;;;;15.50;99.90;;;;;;2059735;28;19914;-71
2023/03/30 05:58:15;;;;;;;;;;;15.50;99.90;;;;;;2057736;28;19920;-72
2023/03/30 05:59:16;;;;;;;;;;;15.50;99.90;;;;;;2059309;28;19945;-72
2023/03/30 06:00:18;;;;;;;;;;;15.50;99.90;;;;;;2058463;28;19910;-72
2023/03/30 06:01:19;;;;;;;;;;;15.50;99.90;;;;;;2059480;28;19963;-72
2023/03/30 06:02:20;;;;;;;;;;;15.50;99.90;;;;;;2073963;28;20365;-72
2023/03/30 06:03:20;;;;;;;;;;;15.50;99.90;;;;;;2074850;28;20552;-72
2023/03/30 06:04:21;;;;;;;;;;;15.50;99.90;;;;;;2058422;28;20286;-72
2023/03/30 06:05:21;;;;;;;;;;;15.50;99.90;;;;;;2057247;28;19928;-72
2023/03/30 06:06:22;;;;;;;;;;;15.50;99.90;;;;;;2057435;28;19948;-72